sensor_id;sensor_type;location;lat;lon;timestamp;temperature;humidity
5492;DHT22;2768;53.540;10.224;2023-02-08T00:05:34;1.50;99.90
5492;DHT22;2768;53.540;10.224;2023-02-08T00:11:27;1.50;99.90
5492;DHT22;2768;53.540;10.224;2023-02-08T00:17:22;1.40;99.90
5492;DHT22;2768;53.540;10.224;2023-02-08T00:23:15;1.50;99.90
5492;DHT22;2768;53.540;10.224;2023-02-08T00:29:09;1.40;99.90
5492;DHT22;2768;53.540;10.224;2023-02-08T00:35:04;1.40;99.90
5492;DHT22;2768;53.540;10.224;2023-02-08T00:40:57;1.10;99.90
5492;DHT22;2768;53.540;10.224;2023-02-08T00:46:50;1.30;99.90
5492;DHT22;2768;53.540;10.224;2023-02-08T00:52:46;1.10;99.90
5492;DHT22;2768;53.540;10.224;2023-02-08T00:58:39;1.00;99.90
5492;DHT22;2768;53.540;10.224;2023-02-08T01:04:35;1.10;99.90
5492;DHT22;2768;53.540;10.224;2023-02-08T01:10:29;1.20;99.90
5492;DHT22;2768;53.540;10.224;2023-02-08T01:16:25;1.20;99.90
5492;DHT22;2768;53.540;10.224;2023-02-08T01:22:19;1.10;99.90
5492;DHT22;2768;53.540;10.224;2023-02-08T01:28:13;0.90;99.90
5492;DHT22;2768;53.540;10.224;2023-02-08T01:34:07;0.70;99.90
5492;DHT22;2768;53.540;10.224;2023-02-08T01:40:01;0.60;99.90
5492;DHT22;2768;53.540;10.224;2023-02-08T01:45:56;0.50;99.90
5492;DHT22;2768;53.540;10.224;2023-02-08T01:51:54;0.40;99.90
5492;DHT22;2768;53.540;10.224;2023-02-08T01:57:50;0.60;99.90
5492;DHT22;2768;53.540;10.224;2023-02-08T02:03:46;0.80;99.90
5492;DHT22;2768;53.540;10.224;2023-02-08T02:09:44;0.50;99.90
5492;DHT22;2768;53.540;10.224;2023-02-08T02:15:38;0.70;99.90
5492;DHT22;2768;53.540;10.224;2023-02-08T02:21:53;0.70;99.90
5492;DHT22;2768;53.540;10.224;2023-02-08T02:34:12;0.70;99.90
5492;DHT22;2768;53.540;10.224;2023-02-08T02:40:14;0.60;99.90
5492;DHT22;2768;53.540;10.224;2023-02-08T02:46:14;0.60;99.90
5492;DHT22;2768;53.540;10.224;2023-02-08T02:52:11;0.50;99.90
5492;DHT22;2768;53.540;10.224;2023-02-08T02:58:07;0.50;99.90
5492;DHT22;2768;53.540;10.224;2023-02-08T03:04:12;0.50;99.90
5492;DHT22;2768;53.540;10.224;2023-02-08T03:10:17;0.30;99.90
5492;DHT22;2768;53.540;10.224;2023-02-08T03:16:16;0.10;99.90
5492;DHT22;2768;53.540;10.224;2023-02-08T03:22:13;-0.40;99.90
5492;DHT22;2768;53.540;10.224;2023-02-08T03:28:12;-0.20;99.90
5492;DHT22;2768;53.540;10.224;2023-02-08T03:34:12;-0.40;99.90
5492;DHT22;2768;53.540;10.224;2023-02-08T03:40:10;-0.30;99.90
5492;DHT22;2768;53.540;10.224;2023-02-08T03:46:10;-0.40;99.90
5492;DHT22;2768;53.540;10.224;2023-02-08T03:52:06;-0.50;99.90
5492;DHT22;2768;53.540;10.224;2023-02-08T03:58:05;-0.40;99.90
5492;DHT22;2768;53.540;10.224;2023-02-08T04:04:02;-0.10;99.90
5492;DHT22;2768;53.540;10.224;2023-02-08T04:09:56;0.00;99.90
5492;DHT22;2768;53.540;10.224;2023-02-08T04:15:49;-0.20;99.90
5492;DHT22;2768;53.540;10.224;2023-02-08T04:21:44;-0.10;99.90
5492;DHT22;2768;53.540;10.224;2023-02-08T04:27:37;0.00;99.90
5492;DHT22;2768;53.540;10.224;2023-02-08T04:33:30;0.00;99.90
5492;DHT22;2768;53.540;10.224;2023-02-08T04:39:25;-0.10;99.90
5492;DHT22;2768;53.540;10.224;2023-02-08T04:45:18;0.00;99.90
5492;DHT22;2768;53.540;10.224;2023-02-08T04:51:11;-0.10;99.90
5492;DHT22;2768;53.540;10.224;2023-02-08T04:57:06;-0.30;99.90
5492;DHT22;2768;53.540;10.224;2023-02-08T05:02:59;-0.30;99.90
5492;DHT22;2768;53.540;10.224;2023-02-08T05:08:53;-0.40;99.90
5492;DHT22;2768;53.540;10.224;2023-02-08T05:14:47;-0.30;99.90
5492;DHT22;2768;53.540;10.224;2023-02-08T05:20:40;-0.20;99.90
5492;DHT22;2768;53.540;10.224;2023-02-08T05:26:34;-0.20;99.90
5492;DHT22;2768;53.540;10.224;2023-02-08T05:32:29;-0.20;99.90
5492;DHT22;2768;53.540;10.224;2023-02-08T05:38:22;-0.10;99.90
5492;DHT22;2768;53.540;10.224;2023-02-08T05:44:15;-0.30;99.90
5492;DHT22;2768;53.540;10.224;2023-02-08T05:50:09;-0.50;99.90
5492;DHT22;2768;53.540;10.224;2023-02-08T05:56:04;-0.30;99.90
5492;DHT22;2768;53.540;10.224;2023-02-08T06:01:57;-0.30;99.90
5492;DHT22;2768;53.540;10.224;2023-02-08T06:07:52;-0.20;99.90
5492;DHT22;2768;53.540;10.224;2023-02-08T06:13:46;-0.30;99.90
5492;DHT22;2768;53.540;10.224;2023-02-08T06:19:39;-0.20;99.90
5492;DHT22;2768;53.540;10.224;2023-02-08T06:25:34;-0.30;99.90
5492;DHT22;2768;53.540;10.224;2023-02-08T06:31:27;-0.20;99.90
5492;DHT22;2768;53.540;10.224;2023-02-08T06:37:20;-0.20;99.90
5492;DHT22;2768;53.540;10.224;2023-02-08T06:43:15;-0.20;99.90
5492;DHT22;2768;53.540;10.224;2023-02-08T06:49:10;-0.10;99.90
5492;DHT22;2768;53.540;10.224;2023-02-08T06:55:03;-0.20;99.90
5492;DHT22;2768;53.540;10.224;2023-02-08T07:00:58;-0.10;99.90
5492;DHT22;2768;53.540;10.224;2023-02-08T07:06:52;-0.10;99.90
5492;DHT22;2768;53.540;10.224;2023-02-08T07:12:45;-0.50;99.90
5492;DHT22;2768;53.540;10.224;2023-02-08T07:18:39;-0.40;99.90
5492;DHT22;2768;53.540;10.224;2023-02-08T07:24:34;-0.40;99.90
5492;DHT22;2768;53.540;10.224;2023-02-08T07:30:27;-0.30;99.90
5492;DHT22;2768;53.540;10.224;2023-02-08T07:36:22;-0.30;99.90
5492;DHT22;2768;53.540;10.224;2023-02-08T07:42:15;-0.30;99.90
5492;DHT22;2768;53.540;10.224;2023-02-08T07:48:24;-0.20;99.90
5492;DHT22;2768;53.540;10.224;2023-02-08T07:54:19;-0.20;99.90
5492;DHT22;2768;53.540;10.224;2023-02-08T08:00:13;-0.20;99.90
5492;DHT22;2768;53.540;10.224;2023-02-08T08:06:07;-0.10;99.90
5492;DHT22;2768;53.540;10.224;2023-02-08T08:12:02;-0.10;99.90
5492;DHT22;2768;53.540;10.224;2023-02-08T08:17:56;0.00;99.90
5492;DHT22;2768;53.540;10.224;2023-02-08T08:23:49;0.20;99.90
5492;DHT22;2768;53.540;10.224;2023-02-08T08:29:44;0.30;99.90
5492;DHT22;2768;53.540;10.224;2023-02-08T08:35:38;0.40;99.90
5492;DHT22;2768;53.540;10.224;2023-02-08T08:41:31;0.50;99.90
5492;DHT22;2768;53.540;10.224;2023-02-08T08:47:25;0.60;99.90
5492;DHT22;2768;53.540;10.224;2023-02-08T08:53:19;0.70;99.90
5492;DHT22;2768;53.540;10.224;2023-02-08T08:59:13;0.90;99.90
5492;DHT22;2768;53.540;10.224;2023-02-08T09:05:08;0.90;99.90
5492;DHT22;2768;53.540;10.224;2023-02-08T09:11:05;1.00;99.90
5492;DHT22;2768;53.540;10.224;2023-02-08T09:16:58;1.10;99.90
5492;DHT22;2768;53.540;10.224;2023-02-08T09:22:52;1.40;99.90
5492;DHT22;2768;53.540;10.224;2023-02-08T09:28:46;1.50;99.90
5492;DHT22;2768;53.540;10.224;2023-02-08T09:34:39;1.80;99.90
5492;DHT22;2768;53.540;10.224;2023-02-08T09:40:40;2.10;99.90
5492;DHT22;2768;53.540;10.224;2023-02-08T09:46:37;2.20;99.90
5492;DHT22;2768;53.540;10.224;2023-02-08T09:52:36;2.40;93.60
5492;DHT22;2768;53.540;10.224;2023-02-08T09:58:34;2.90;90.30
5492;DHT22;2768;53.540;10.224;2023-02-08T10:04:35;3.50;84.40
5492;DHT22;2768;53.540;10.224;2023-02-08T10:10:38;3.90;75.50
5492;DHT22;2768;53.540;10.224;2023-02-08T10:16:46;4.30;73.90
5492;DHT22;2768;53.540;10.224;2023-02-08T10:22:47;4.70;67.20
5492;DHT22;2768;53.540;10.224;2023-02-08T10:35:10;5.60;55.70
5492;DHT22;2768;53.540;10.224;2023-02-08T10:41:05;6.20;45.30
5492;DHT22;2768;53.540;10.224;2023-02-08T10:47:07;6.70;35.90
5492;DHT22;2768;53.540;10.224;2023-02-08T10:53:04;7.00;26.80
5492;DHT22;2768;53.540;10.224;2023-02-08T10:58:59;7.80;20.40
5492;DHT22;2768;53.540;10.224;2023-02-08T11:04:58;7.70;5.50
5492;DHT22;2768;53.540;10.224;2023-02-08T11:10:59;8.00;1.00
5492;DHT22;2768;53.540;10.224;2023-02-08T11:16:55;8.40;1.00
5492;DHT22;2768;53.540;10.224;2023-02-08T11:22:49;8.90;1.00
5492;DHT22;2768;53.540;10.224;2023-02-08T11:28:44;9.20;1.00
5492;DHT22;2768;53.540;10.224;2023-02-08T11:34:50;9.70;1.00
5492;DHT22;2768;53.540;10.224;2023-02-08T11:40:43;9.60;1.00
5492;DHT22;2768;53.540;10.224;2023-02-08T11:46:38;10.10;1.00
5492;DHT22;2768;53.540;10.224;2023-02-08T11:52:34;10.30;1.00
5492;DHT22;2768;53.540;10.224;2023-02-08T11:58:30;10.00;1.00
5492;DHT22;2768;53.540;10.224;2023-02-08T12:04:25;9.80;1.00
5492;DHT22;2768;53.540;10.224;2023-02-08T12:10:27;10.10;1.00
5492;DHT22;2768;53.540;10.224;2023-02-08T12:16:37;10.30;1.00
5492;DHT22;2768;53.540;10.224;2023-02-08T12:22:40;10.30;1.00
5492;DHT22;2768;53.540;10.224;2023-02-08T12:28:44;10.90;1.00
5492;DHT22;2768;53.540;10.224;2023-02-08T12:34:52;10.90;1.00
5492;DHT22;2768;53.540;10.224;2023-02-08T12:40:57;11.30;1.00
5492;DHT22;2768;53.540;10.224;2023-02-08T12:46:59;11.10;1.00
5492;DHT22;2768;53.540;10.224;2023-02-08T12:53:00;10.70;1.00
5492;DHT22;2768;53.540;10.224;2023-02-08T12:58:59;11.10;1.00
5492;DHT22;2768;53.540;10.224;2023-02-08T13:05:06;11.60;1.00
5492;DHT22;2768;53.540;10.224;2023-02-08T13:11:03;11.30;1.00
5492;DHT22;2768;53.540;10.224;2023-02-08T13:17:16;11.00;1.00
5492;DHT22;2768;53.540;10.224;2023-02-08T13:23:17;11.30;1.00
5492;DHT22;2768;53.540;10.224;2023-02-08T13:29:17;11.10;1.00
5492;DHT22;2768;53.540;10.224;2023-02-08T13:35:16;11.00;1.00
5492;DHT22;2768;53.540;10.224;2023-02-08T13:41:14;11.00;1.00
5492;DHT22;2768;53.540;10.224;2023-02-08T13:47:23;11.00;1.00
5492;DHT22;2768;53.540;10.224;2023-02-08T14:00:21;11.40;1.00
5492;DHT22;2768;53.540;10.224;2023-02-08T14:06:17;10.90;1.00
5492;DHT22;2768;53.540;10.224;2023-02-08T14:12:21;10.60;1.00
5492;DHT22;2768;53.540;10.224;2023-02-08T14:18:22;10.90;1.00
5492;DHT22;2768;53.540;10.224;2023-02-08T14:24:21;10.90;1.00
5492;DHT22;2768;53.540;10.224;2023-02-08T14:30:23;10.50;1.00
5492;DHT22;2768;53.540;10.224;2023-02-08T14:36:24;10.50;1.00
5492;DHT22;2768;53.540;10.224;2023-02-08T14:42:52;10.40;1.00
5492;DHT22;2768;53.540;10.224;2023-02-08T14:48:48;10.30;1.00
5492;DHT22;2768;53.540;10.224;2023-02-08T14:54:46;9.70;1.00
5492;DHT22;2768;53.540;10.224;2023-02-08T15:00:40;9.60;1.00
5492;DHT22;2768;53.540;10.224;2023-02-08T15:07:04;9.50;1.00
5492;DHT22;2768;53.540;10.224;2023-02-08T15:13:04;9.30;1.00
5492;DHT22;2768;53.540;10.224;2023-02-08T15:19:00;9.30;1.00
5492;DHT22;2768;53.540;10.224;2023-02-08T15:24:57;8.90;1.00
5492;DHT22;2768;53.540;10.224;2023-02-08T15:30:54;8.80;1.00
5492;DHT22;2768;53.540;10.224;2023-02-08T15:36:50;8.40;1.00
5492;DHT22;2768;53.540;10.224;2023-02-08T15:42:46;8.10;1.00
5492;DHT22;2768;53.540;10.224;2023-02-08T15:48:40;8.10;1.00
5492;DHT22;2768;53.540;10.224;2023-02-08T15:54:34;7.80;1.00
5492;DHT22;2768;53.540;10.224;2023-02-08T16:00:31;7.40;1.00
5492;DHT22;2768;53.540;10.224;2023-02-08T16:06:28;7.10;1.00
5492;DHT22;2768;53.540;10.224;2023-02-08T16:12:23;6.80;1.00
5492;DHT22;2768;53.540;10.224;2023-02-08T16:18:33;6.60;1.00
5492;DHT22;2768;53.540;10.224;2023-02-08T16:24:27;6.40;1.00
5492;DHT22;2768;53.540;10.224;2023-02-08T16:30:21;6.10;1.00
5492;DHT22;2768;53.540;10.224;2023-02-08T16:36:22;5.90;1.00
5492;DHT22;2768;53.540;10.224;2023-02-08T16:42:29;5.80;1.00
5492;DHT22;2768;53.540;10.224;2023-02-08T16:48:30;5.70;1.00
5492;DHT22;2768;53.540;10.224;2023-02-08T16:54:27;5.60;1.00
5492;DHT22;2768;53.540;10.224;2023-02-08T17:00:23;5.50;1.00
5492;DHT22;2768;53.540;10.224;2023-02-08T17:06:26;5.40;1.00
5492;DHT22;2768;53.540;10.224;2023-02-08T17:12:22;5.10;1.00
5492;DHT22;2768;53.540;10.224;2023-02-08T17:18:16;5.20;1.00
5492;DHT22;2768;53.540;10.224;2023-02-08T17:24:09;4.90;1.00
5492;DHT22;2768;53.540;10.224;2023-02-08T17:30:05;4.90;1.00
5492;DHT22;2768;53.540;10.224;2023-02-08T17:35:58;4.70;1.00
5492;DHT22;2768;53.540;10.224;2023-02-08T17:41:52;4.60;1.00
5492;DHT22;2768;53.540;10.224;2023-02-08T17:47:46;4.70;1.00
5492;DHT22;2768;53.540;10.224;2023-02-08T17:53:40;4.40;1.00
5492;DHT22;2768;53.540;10.224;2023-02-08T17:59:37;4.40;1.00
5492;DHT22;2768;53.540;10.224;2023-02-08T18:05:32;4.20;1.00
5492;DHT22;2768;53.540;10.224;2023-02-08T18:11:25;4.10;1.00
5492;DHT22;2768;53.540;10.224;2023-02-08T18:17:18;4.20;1.00
5492;DHT22;2768;53.540;10.224;2023-02-08T18:23:13;4.10;1.00
5492;DHT22;2768;53.540;10.224;2023-02-08T18:29:06;4.00;1.00
5492;DHT22;2768;53.540;10.224;2023-02-08T18:34:59;3.90;1.00
5492;DHT22;2768;53.540;10.224;2023-02-08T18:40:56;3.80;2.50
5492;DHT22;2768;53.540;10.224;2023-02-08T18:46:49;3.70;3.30
5492;DHT22;2768;53.540;10.224;2023-02-08T18:52:43;3.50;7.60
5492;DHT22;2768;53.540;10.224;2023-02-08T18:58:37;3.50;12.80
5492;DHT22;2768;53.540;10.224;2023-02-08T19:04:30;3.40;13.70
5492;DHT22;2768;53.540;10.224;2023-02-08T19:10:27;3.20;17.70
5492;DHT22;2768;53.540;10.224;2023-02-08T19:16:22;3.10;23.80
5492;DHT22;2768;53.540;10.224;2023-02-08T19:22:16;3.10;29.70
5492;DHT22;2768;53.540;10.224;2023-02-08T19:28:09;3.10;34.70
5492;DHT22;2768;53.540;10.224;2023-02-08T19:34:04;3.00;34.30
5492;DHT22;2768;53.540;10.224;2023-02-08T19:39:58;2.90;34.80
5492;DHT22;2768;53.540;10.224;2023-02-08T19:45:51;2.90;38.10
5492;DHT22;2768;53.540;10.224;2023-02-08T19:51:46;2.70;38.80
5492;DHT22;2768;53.540;10.224;2023-02-08T19:57:39;2.70;37.60
5492;DHT22;2768;53.540;10.224;2023-02-08T20:03:33;2.70;35.40
5492;DHT22;2768;53.540;10.224;2023-02-08T20:09:28;2.60;31.90
5492;DHT22;2768;53.540;10.224;2023-02-08T20:15:21;2.50;29.70
5492;DHT22;2768;53.540;10.224;2023-02-08T20:21:15;2.40;26.50
5492;DHT22;2768;53.540;10.224;2023-02-08T20:27:09;2.20;24.30
5492;DHT22;2768;53.540;10.224;2023-02-08T20:33:03;2.30;26.80
5492;DHT22;2768;53.540;10.224;2023-02-08T20:38:57;2.30;25.90
5492;DHT22;2768;53.540;10.224;2023-02-08T20:44:51;2.20;23.20
5492;DHT22;2768;53.540;10.224;2023-02-08T20:50:45;2.20;23.00
5492;DHT22;2768;53.540;10.224;2023-02-08T20:56:38;2.10;23.40
5492;DHT22;2768;53.540;10.224;2023-02-08T21:02:33;2.10;23.50
5492;DHT22;2768;53.540;10.224;2023-02-08T21:08:26;1.90;25.30
5492;DHT22;2768;53.540;10.224;2023-02-08T21:14:21;2.10;28.90
5492;DHT22;2768;53.540;10.224;2023-02-08T21:20:16;2.20;30.80
5492;DHT22;2768;53.540;10.224;2023-02-08T21:26:10;2.10;28.60
5492;DHT22;2768;53.540;10.224;2023-02-08T21:32:04;2.20;28.00
5492;DHT22;2768;53.540;10.224;2023-02-08T21:37:59;2.10;24.80
5492;DHT22;2768;53.540;10.224;2023-02-08T21:43:53;2.20;27.90
5492;DHT22;2768;53.540;10.224;2023-02-08T21:49:47;2.30;30.00
5492;DHT22;2768;53.540;10.224;2023-02-08T21:55:58;2.20;26.90
5492;DHT22;2768;53.540;10.224;2023-02-08T22:01:52;2.20;27.00
5492;DHT22;2768;53.540;10.224;2023-02-08T22:07:47;2.00;24.50
5492;DHT22;2768;53.540;10.224;2023-02-08T22:13:42;2.00;28.20
5492;DHT22;2768;53.540;10.224;2023-02-08T22:19:36;2.00;30.10
5492;DHT22;2768;53.540;10.224;2023-02-08T22:25:30;1.80;30.90
5492;DHT22;2768;53.540;10.224;2023-02-08T22:31:24;1.70;32.30
5492;DHT22;2768;53.540;10.224;2023-02-08T22:37:18;1.80;38.40
5492;DHT22;2768;53.540;10.224;2023-02-08T22:43:12;1.80;40.20
5492;DHT22;2768;53.540;10.224;2023-02-08T22:49:07;1.90;41.00
5492;DHT22;2768;53.540;10.224;2023-02-08T22:55:01;1.60;35.60
5492;DHT22;2768;53.540;10.224;2023-02-08T23:00:55;1.80;42.30
5492;DHT22;2768;53.540;10.224;2023-02-08T23:06:50;2.00;41.90
5492;DHT22;2768;53.540;10.224;2023-02-08T23:12:43;1.90;43.50
5492;DHT22;2768;53.540;10.224;2023-02-08T23:18:37;2.00;42.60
5492;DHT22;2768;53.540;10.224;2023-02-08T23:24:31;1.70;43.20
5492;DHT22;2768;53.540;10.224;2023-02-08T23:30:25;1.60;46.30
5492;DHT22;2768;53.540;10.224;2023-02-08T23:36:20;1.50;48.10
5492;DHT22;2768;53.540;10.224;2023-02-08T23:42:15;1.40;52.20
5492;DHT22;2768;53.540;10.224;2023-02-08T23:48:16;1.40;56.80
5492;DHT22;2768;53.540;10.224;2023-02-08T23:54:10;1.40;60.00
